createdAt,value
2022-11-18T00:02:04.432Z,41.30
2022-11-18T00:04:36.986Z,49.80
2022-11-18T00:07:07.111Z,56.42
2022-11-18T00:09:37.508Z,44.72
2022-11-18T00:12:25.621Z,34.33
2022-11-18T00:14:57.300Z,36.40
2022-11-18T00:17:28.193Z,31.63
2022-11-18T00:19:58.671Z,22.48
2022-11-18T00:22:30.051Z,34.95
2022-11-18T00:25:02.321Z,27.70
2022-11-18T00:27:34.577Z,25.95
2022-11-18T00:30:02.318Z,31.35
2022-11-18T00:32:33.681Z,28.67
2022-11-18T00:35:07.422Z,28.65
2022-11-18T00:37:42.130Z,29.15
2022-11-18T00:40:14.247Z,37.80
2022-11-18T00:42:55.177Z,35.40
2022-11-18T00:45:27.366Z,39.75
2022-11-18T00:48:00.385Z,29.02
2022-11-18T00:50:32.926Z,21.58
2022-11-18T00:53:03.800Z,28.83
2022-11-18T00:55:33.715Z,31.55
2022-11-18T00:58:06.394Z,25.80
2022-11-18T01:00:35.098Z,23.20
2022-11-18T01:03:05.505Z,23.80
2022-11-18T01:05:38.466Z,22.50
2022-11-18T01:08:09.171Z,26.38
2022-11-18T01:10:40.089Z,23.65
2022-11-18T01:13:21.062Z,28.67
2022-11-18T01:15:58.946Z,30.60
2022-11-18T01:18:43.501Z,29.52
2022-11-18T01:21:14.674Z,33.17
2022-11-18T01:23:46.211Z,29.67
2022-11-18T01:26:17.453Z,22.98
2022-11-18T01:28:46.314Z,24.08
2022-11-18T01:31:19.842Z,24.98
2022-11-18T01:33:50.655Z,18.00
2022-11-18T01:36:25.422Z,21.10
2022-11-18T01:38:55.259Z,41.65
2022-11-18T01:41:28.790Z,26.77
2022-11-18T01:44:36.576Z,17.85
2022-11-18T01:47:05.214Z,22.35
2022-11-18T01:49:35.476Z,25.63
2022-11-18T01:52:11.170Z,23.13
2022-11-18T01:54:47.659Z,26.65
2022-11-18T01:57:26.325Z,23.80
2022-11-18T02:00:02.465Z,30.20
2022-11-18T02:02:55.290Z,28.70
2022-11-18T02:05:53.195Z,25.27
2022-11-18T02:08:26.176Z,25.60
2022-11-18T02:10:57.864Z,21.45
2022-11-18T02:16:17.943Z,22.70
2022-11-18T02:19:06.709Z,12.10
2022-11-18T02:22:05.655Z,20.15
2022-11-18T02:25:02.865Z,22.27
2022-11-18T02:28:18.791Z,32.30
2022-11-18T02:31:19.276Z,42.42
2022-11-18T02:34:17.456Z,47.25
2022-11-18T02:36:57.252Z,32.10
2022-11-18T02:39:58.438Z,44.67
2022-11-18T02:42:29.767Z,58.20
2022-11-18T02:45:07.187Z,39.72
2022-11-18T02:47:37.668Z,36.45
2022-11-18T02:50:14.039Z,30.30
2022-11-18T02:52:55.056Z,31.38
2022-11-18T02:55:30.985Z,42.45
2022-11-18T02:58:04.762Z,46.88
2022-11-18T03:00:33.251Z,58.58
2022-11-18T03:03:26.957Z,74.63
2022-11-18T03:06:46.124Z,38.78
2022-11-18T03:09:36.213Z,42.40
2022-11-18T03:12:29.106Z,23.73
2022-11-18T03:15:27.883Z,32.65
2022-11-18T03:18:27.816Z,68.78
2022-11-18T03:21:03.907Z,44.17
2022-11-18T03:23:49.923Z,44.45
2022-11-18T03:26:37.126Z,58.92
2022-11-18T03:29:26.744Z,59.17
2022-11-18T03:32:24.224Z,32.15
2022-11-18T03:35:01.707Z,28.52
2022-11-18T03:37:36.412Z,36.65
2022-11-18T03:40:27.414Z,31.83
2022-11-18T03:43:14.748Z,34.83
2022-11-18T03:46:15.049Z,40.72
2022-11-18T03:49:08.852Z,35.78
2022-11-18T03:51:50.488Z,30.02
2022-11-18T03:54:31.084Z,30.73
2022-11-18T03:57:10.991Z,24.73
2022-11-18T03:59:52.090Z,23.95
2022-11-18T04:02:42.722Z,35.35
2022-11-18T04:05:17.433Z,38.45
2022-11-18T04:08:03.155Z,20.30
2022-11-18T04:10:46.250Z,20.67
2022-11-18T04:13:37.053Z,21.50
2022-11-18T04:16:12.583Z,25.60
2022-11-18T04:18:40.319Z,33.13
2022-11-18T04:21:09.481Z,35.67
2022-11-18T04:23:43.680Z,19.65
2022-11-18T04:26:13.214Z,16.75
2022-11-18T04:28:47.646Z,17.83
2022-11-18T04:31:19.857Z,20.92
2022-11-18T04:33:50.755Z,16.92
2022-11-18T04:36:21.695Z,36.35
2022-11-18T04:38:49.435Z,42.67
2022-11-18T04:41:19.313Z,40.97
2022-11-18T04:43:54.211Z,44.80
2022-11-18T04:46:27.720Z,44.40
2022-11-18T04:48:58.659Z,36.90
2022-11-18T04:51:30.582Z,32.60
2022-11-18T04:54:04.914Z,21.38
2022-11-18T04:56:32.081Z,20.80
2022-11-18T04:59:03.505Z,22.58
2022-11-18T05:01:31.795Z,21.15
2022-11-18T05:04:05.854Z,23.33
2022-11-18T05:06:35.328Z,18.35
2022-11-18T05:09:05.666Z,17.67
2022-11-18T05:11:54.895Z,17.02
2022-11-18T05:14:35.943Z,17.92
2022-11-18T05:17:12.154Z,14.32
2022-11-18T05:19:41.128Z,18.40
2022-11-18T05:22:11.648Z,21.60
2022-11-18T05:24:44.246Z,32.10
2022-11-18T05:27:13.542Z,21.27
2022-11-18T05:29:43.665Z,22.25
2022-11-18T05:32:14.496Z,21.85
2022-11-18T05:34:47.364Z,28.65
2022-11-18T05:37:20.219Z,57.22
2022-11-18T05:39:52.061Z,35.55
2022-11-18T05:42:40.500Z,32.38
2022-11-18T05:45:13.297Z,18.10
2022-11-18T05:48:01.247Z,56.78
2022-11-18T05:50:33.854Z,66.57
2022-11-18T05:53:02.284Z,54.15
2022-11-18T05:55:59.617Z,59.05
2022-11-18T05:58:31.457Z,47.30
2022-11-18T06:01:09.619Z,22.83
2022-11-18T06:03:43.697Z,28.83
2022-11-18T06:06:14.271Z,25.73
2022-11-18T06:08:50.919Z,23.77
2022-11-18T06:11:23.607Z,23.13
2022-11-18T06:14:03.773Z,19.67
2022-11-18T06:16:39.426Z,17.25
2022-11-18T06:19:10.586Z,16.15
2022-11-18T06:21:41.298Z,21.70
2022-11-18T06:24:18.277Z,20.58
2022-11-18T06:26:53.552Z,21.98
2022-11-18T06:29:28.281Z,20.77
2022-11-18T06:31:57.882Z,18.13
2022-11-18T06:34:33.638Z,20.23
2022-11-18T06:37:19.234Z,24.90
2022-11-18T06:39:52.014Z,24.33
2022-11-18T06:42:40.604Z,20.15
2022-11-18T06:45:13.941Z,22.13
2022-11-18T06:47:42.548Z,22.08
2022-11-18T06:50:16.024Z,21.90
2022-11-18T06:52:46.536Z,24.98
2022-11-18T06:55:18.205Z,21.58
2022-11-18T06:57:48.839Z,26.95
2022-11-18T07:00:16.822Z,25.33
2022-11-18T07:02:46.526Z,31.90
2022-11-18T07:05:16.555Z,28.55
2022-11-18T07:07:44.437Z,30.17
2022-11-18T07:10:13.476Z,30.13
2022-11-18T07:12:41.155Z,25.48
2022-11-18T07:15:15.666Z,27.70
2022-11-18T07:17:45.729Z,26.75
2022-11-18T07:20:14.885Z,26.00
2022-11-18T07:22:44.796Z,33.83
2022-11-18T07:25:15.477Z,29.13
2022-11-18T07:27:46.346Z,30.02
2022-11-18T07:30:15.526Z,29.45
2022-11-18T07:32:47.911Z,30.58
2022-11-18T07:35:19.681Z,29.20
2022-11-18T07:37:51.981Z,33.55
2022-11-18T07:40:23.112Z,27.40
2022-11-18T07:42:51.991Z,25.42
2022-11-18T07:45:28.064Z,32.53
2022-11-18T07:48:02.205Z,27.15
2022-11-18T07:50:34.297Z,32.17
2022-11-18T07:53:05.539Z,28.85
2022-11-18T07:55:39.776Z,39.13
2022-11-18T07:58:13.580Z,40.80
2022-11-18T08:00:41.277Z,33.85
2022-11-18T08:03:14.553Z,34.08
2022-11-18T08:05:45.514Z,33.47
2022-11-18T08:08:14.737Z,30.88
2022-11-18T08:10:45.086Z,48.30
2022-11-18T08:13:15.652Z,37.80
2022-11-18T08:15:45.975Z,42.90
2022-11-18T08:18:15.771Z,49.17
2022-11-18T08:20:45.722Z,58.35
2022-11-18T08:23:14.599Z,57.83
2022-11-18T08:25:52.898Z,57.28
2022-11-18T08:28:26.157Z,46.75
2022-11-18T08:30:56.819Z,47.17
2022-11-18T08:33:28.811Z,47.63
2022-11-18T08:35:57.498Z,54.78
2022-11-18T08:38:29.860Z,45.67
2022-11-18T08:41:04.810Z,44.33
2022-11-18T08:43:34.676Z,45.08
2022-11-18T08:46:04.268Z,53.28
2022-11-18T08:48:32.604Z,53.45
2022-11-18T08:51:05.470Z,46.03
2022-11-18T08:53:34.424Z,51.15
2022-11-18T08:56:21.990Z,41.10
2022-11-18T08:58:51.102Z,42.72
2022-11-18T09:01:29.651Z,40.08
2022-11-18T09:04:03.791Z,39.95
2022-11-18T09:06:32.403Z,49.15
2022-11-18T09:09:18.314Z,44.70
2022-11-18T09:11:50.277Z,41.00
2022-11-18T09:17:14.581Z,42.03
2022-11-18T09:19:48.547Z,36.42
2022-11-18T09:22:25.730Z,36.70
2022-11-18T09:24:57.124Z,39.95
2022-11-18T09:27:28.583Z,35.03
2022-11-18T09:30:00.178Z,40.03
2022-11-18T09:32:33.384Z,37.03
2022-11-18T09:35:05.396Z,42.03
2022-11-18T09:37:35.907Z,44.13
2022-11-18T09:40:11.049Z,42.53
2022-11-18T09:43:11.186Z,40.85
2022-11-18T09:46:10.136Z,45.30
2022-11-18T09:48:58.013Z,51.88
2022-11-18T09:51:36.549Z,42.63
2022-11-18T09:54:10.218Z,41.50
2022-11-18T09:56:42.690Z,45.58
2022-11-18T09:59:23.505Z,42.47
2022-11-18T10:02:28.171Z,48.08
2022-11-18T10:05:08.855Z,39.08
2022-11-18T10:07:58.419Z,48.13
2022-11-18T10:10:41.262Z,52.25
2022-11-18T10:13:59.631Z,63.40
2022-11-18T10:16:45.995Z,59.50
2022-11-18T10:20:01.903Z,48.13
2022-11-18T10:23:03.238Z,43.35
2022-11-18T10:25:32.654Z,39.78
2022-11-18T10:28:22.241Z,47.75
2022-11-18T10:30:53.812Z,55.15
2022-11-18T10:33:31.301Z,50.80
2022-11-18T10:36:31.295Z,46.17
2022-11-18T10:39:19.027Z,53.97
2022-11-18T10:42:13.950Z,54.85
2022-11-18T10:44:47.255Z,48.65
2022-11-18T10:47:34.106Z,41.70
2022-11-18T10:50:32.080Z,39.70
2022-11-18T10:53:02.942Z,42.00
2022-11-18T10:55:34.031Z,45.05
2022-11-18T10:58:27.468Z,51.45
2022-11-18T11:01:11.208Z,40.10
2022-11-18T11:03:43.174Z,44.33
2022-11-18T11:06:37.571Z,50.00
2022-11-18T11:09:17.828Z,30.43
2022-11-18T11:12:15.900Z,40.75
2022-11-18T11:15:15.670Z,43.25
2022-11-18T11:18:20.835Z,47.00
2022-11-18T11:20:56.187Z,41.47
2022-11-18T11:23:27.378Z,28.20
2022-11-18T11:29:25.474Z,39.08
2022-11-18T11:32:20.553Z,42.50
2022-11-18T11:35:24.666Z,51.08
2022-11-18T11:38:13.261Z,51.30
2022-11-18T11:40:59.190Z,42.63
2022-11-18T11:43:50.554Z,48.33
2022-11-18T11:46:35.845Z,132.73
2022-11-18T11:49:33.252Z,47.72
2022-11-18T11:52:14.152Z,43.90
2022-11-18T11:55:14.577Z,47.63
2022-11-18T11:58:35.972Z,37.90
2022-11-18T12:01:39.308Z,35.35
2022-11-18T12:04:48.151Z,42.20
2022-11-18T12:07:45.551Z,30.27
2022-11-18T12:10:33.890Z,36.83
2022-11-18T12:13:43.383Z,28.50
2022-11-18T12:16:34.456Z,28.02
2022-11-18T12:19:21.053Z,26.55
2022-11-18T12:21:53.244Z,25.88
2022-11-18T12:24:31.528Z,29.50
2022-11-18T12:27:13.974Z,25.33
2022-11-18T12:30:00.124Z,27.75
2022-11-18T12:32:54.430Z,23.77
2022-11-18T12:35:30.077Z,22.33
2022-11-18T12:38:01.794Z,27.08
2022-11-18T12:40:53.167Z,25.08
2022-11-18T12:44:02.229Z,26.00
2022-11-18T12:46:42.799Z,24.45
2022-11-18T12:49:32.003Z,23.25
2022-11-18T12:52:02.547Z,22.40
2022-11-18T12:55:01.463Z,19.52
2022-11-18T12:57:34.681Z,20.27
2022-11-18T13:00:31.217Z,16.58
2022-11-18T13:03:01.465Z,18.38
2022-11-18T13:05:34.612Z,15.00
2022-11-18T13:08:14.173Z,13.05
2022-11-18T13:10:56.056Z,15.38
2022-11-18T13:13:31.394Z,21.63
2022-11-18T13:16:38.393Z,23.00
2022-11-18T13:19:09.638Z,27.85
2022-11-18T13:24:54.114Z,22.33
2022-11-18T13:27:48.543Z,24.35
2022-11-18T13:30:21.059Z,24.33
2022-11-18T13:33:00.059Z,27.55
2022-11-18T13:35:30.291Z,21.83
2022-11-18T13:38:01.357Z,29.20
2022-11-18T13:41:07.057Z,25.80
2022-11-18T13:43:37.981Z,30.55
2022-11-18T13:46:13.535Z,30.30
2022-11-18T13:48:54.139Z,29.73
2022-11-18T13:51:23.495Z,32.38
2022-11-18T13:53:50.818Z,30.33
2022-11-18T13:56:34.849Z,27.58
2022-11-18T13:59:18.419Z,31.23
2022-11-18T14:01:54.781Z,32.25
2022-11-18T14:04:31.183Z,30.88
2022-11-18T14:07:32.490Z,29.30
2022-11-18T14:10:12.582Z,30.73
2022-11-18T14:12:40.740Z,35.38
2022-11-18T14:15:37.903Z,35.85
2022-11-18T14:18:25.150Z,29.63
2022-11-18T14:20:56.415Z,34.55
2022-11-18T14:23:48.204Z,35.85
2022-11-18T14:26:32.400Z,32.00
2022-11-18T14:29:03.162Z,36.25
2022-11-18T14:31:37.169Z,37.58
2022-11-18T14:34:29.336Z,32.33
2022-11-18T14:36:59.085Z,37.60
2022-11-18T14:39:33.611Z,36.15
2022-11-18T14:42:04.168Z,34.85
2022-11-18T14:44:32.075Z,39.38
2022-11-18T14:47:17.994Z,41.05
2022-11-18T14:52:19.234Z,38.20
2022-11-18T14:54:50.511Z,36.70
2022-11-18T14:57:22.171Z,35.33
2022-11-18T14:59:51.205Z,36.88
2022-11-18T15:02:21.465Z,31.45
2022-11-18T15:04:54.051Z,33.22
2022-11-18T15:07:24.101Z,28.48
2022-11-18T15:09:54.891Z,26.15
2022-11-18T15:12:26.391Z,29.13
2022-11-18T15:14:57.281Z,25.13
2022-11-18T15:17:27.818Z,22.15
2022-11-18T15:20:09.910Z,23.65
2022-11-18T15:22:40.698Z,26.35
2022-11-18T15:25:14.253Z,21.83
2022-11-18T15:27:46.427Z,18.10
2022-11-18T15:30:17.087Z,19.92
2022-11-18T15:32:48.849Z,18.20
2022-11-18T15:35:21.229Z,16.02
2022-11-18T15:37:54.431Z,16.45
2022-11-18T15:40:27.181Z,13.90
2022-11-18T15:42:59.736Z,16.70
2022-11-18T15:45:30.085Z,14.38
2022-11-18T15:48:01.770Z,13.43
2022-11-18T15:50:31.285Z,12.43
2022-11-18T15:53:05.218Z,12.57
2022-11-18T15:55:35.590Z,14.07
2022-11-18T15:58:02.900Z,16.55
2022-11-18T16:00:34.686Z,15.80
2022-11-18T16:03:12.922Z,18.20
2022-11-18T16:05:46.219Z,17.42
2022-11-18T16:08:14.696Z,14.77
2022-11-18T16:11:03.941Z,14.07
2022-11-18T16:13:35.095Z,14.73
2022-11-18T16:16:04.772Z,16.17
2022-11-18T16:18:35.428Z,15.55
2022-11-18T16:21:10.380Z,14.25
2022-11-18T16:23:37.965Z,13.93
2022-11-18T16:26:08.518Z,16.35
2022-11-18T16:28:38.241Z,19.33
2022-11-18T16:31:26.726Z,21.63
2022-11-18T16:33:57.219Z,26.98
2022-11-18T16:36:30.118Z,26.90
2022-11-18T16:39:14.280Z,34.70
2022-11-18T16:41:44.724Z,45.47
2022-11-18T16:44:26.915Z,29.80
2022-11-18T16:47:02.023Z,31.25
2022-11-18T16:49:32.581Z,34.00
2022-11-18T16:52:03.162Z,34.60
2022-11-18T16:54:32.064Z,25.98
2022-11-18T16:57:03.762Z,28.30
2022-11-18T16:59:36.905Z,31.52
2022-11-18T17:02:06.597Z,22.75
2022-11-18T17:04:37.732Z,29.35
2022-11-18T17:07:08.415Z,27.10
2022-11-18T17:09:40.115Z,31.45
2022-11-18T17:12:09.191Z,30.98
2022-11-18T17:14:40.598Z,33.53
2022-11-18T17:17:08.950Z,38.17
2022-11-18T17:19:36.922Z,42.10
2022-11-18T17:22:07.503Z,37.70
2022-11-18T17:24:37.214Z,38.13
2022-11-18T17:27:04.968Z,43.25
2022-11-18T17:29:38.424Z,46.65
2022-11-18T17:32:07.360Z,44.08
2022-11-18T17:34:35.362Z,39.88
2022-11-18T17:37:07.230Z,35.17
2022-11-18T17:39:37.746Z,35.15
2022-11-18T17:42:22.073Z,35.80
2022-11-18T17:44:51.720Z,29.52
2022-11-18T17:47:19.425Z,36.15
2022-11-18T17:49:50.972Z,34.70
2022-11-18T17:52:22.087Z,29.02
2022-11-18T17:54:54.949Z,30.40
2022-11-18T17:57:26.901Z,31.42
2022-11-18T18:02:37.561Z,28.15
2022-11-18T18:05:06.573Z,28.67
2022-11-18T18:07:35.412Z,30.83
2022-11-18T18:10:05.220Z,35.30
2022-11-18T18:12:58.876Z,32.30
2022-11-18T18:15:31.155Z,34.47
2022-11-18T18:17:59.412Z,32.08
2022-11-18T18:20:35.770Z,32.95
2022-11-18T18:23:07.321Z,31.67
2022-11-18T18:25:37.806Z,35.35
2022-11-18T18:28:08.851Z,32.75
2022-11-18T18:30:36.961Z,32.85
2022-11-18T18:33:04.986Z,32.83
2022-11-18T18:35:39.253Z,34.40
2022-11-18T18:38:11.521Z,29.85
2022-11-18T18:40:44.775Z,37.38
2022-11-18T18:43:11.909Z,41.17
2022-11-18T18:45:59.598Z,35.90
2022-11-18T18:48:34.850Z,36.17
2022-11-18T18:51:07.379Z,28.75
2022-11-18T18:53:38.634Z,39.92
2022-11-18T18:56:06.339Z,34.55
2022-11-18T18:58:37.094Z,35.03
2022-11-18T19:01:32.426Z,30.27
2022-11-18T19:04:04.946Z,27.48
2022-11-18T19:12:43.764Z,27.30
2022-11-18T19:15:14.567Z,28.55
2022-11-18T19:17:56.618Z,30.40
2022-11-18T19:20:38.804Z,30.50
2022-11-18T19:23:11.502Z,28.35
2022-11-18T19:25:42.705Z,34.17
2022-11-18T19:28:20.570Z,27.92
2022-11-18T19:30:51.753Z,33.08
2022-11-18T19:33:23.508Z,33.22
2022-11-18T19:35:55.003Z,30.55
2022-11-18T19:38:27.983Z,29.95
2022-11-18T19:41:04.508Z,29.92
2022-11-18T19:43:34.152Z,33.15
2022-11-18T19:46:10.219Z,24.70
2022-11-18T19:48:41.752Z,23.23
2022-11-18T19:51:13.935Z,18.58
2022-11-18T19:53:45.450Z,18.98
2022-11-18T19:59:02.018Z,14.20
2022-11-18T20:01:35.556Z,15.32
2022-11-18T20:04:09.383Z,9.88
2022-11-18T20:06:38.725Z,11.57
2022-11-18T20:09:12.939Z,10.52
2022-11-18T20:11:45.508Z,9.33
2022-11-18T20:14:21.857Z,10.60
2022-11-18T20:16:54.666Z,10.50
2022-11-18T20:19:24.567Z,10.77
2022-11-18T20:21:55.819Z,10.55
2022-11-18T20:24:25.090Z,14.63
2022-11-18T20:26:56.128Z,13.23
2022-11-18T20:29:30.407Z,10.18
2022-11-18T20:32:00.653Z,12.35
2022-11-18T20:34:29.267Z,11.48
2022-11-18T20:36:59.322Z,12.25
2022-11-18T20:39:33.708Z,11.93
2022-11-18T20:42:21.487Z,11.27
2022-11-18T20:44:53.612Z,10.57
2022-11-18T20:47:25.109Z,11.75
2022-11-18T20:49:55.881Z,14.57
2022-11-18T20:52:28.055Z,10.15
2022-11-18T20:55:05.250Z,10.50
2022-11-18T20:57:36.819Z,9.65
2022-11-18T21:00:13.895Z,10.88
2022-11-18T21:02:42.650Z,9.27
2022-11-18T21:05:09.876Z,12.93
2022-11-18T21:07:39.853Z,14.07
2022-11-18T21:10:13.789Z,9.32
2022-11-18T21:13:05.067Z,10.25
2022-11-18T21:15:34.120Z,12.27
2022-11-18T21:18:03.669Z,11.00
2022-11-18T21:20:51.466Z,14.73
2022-11-18T21:23:24.242Z,10.60
2022-11-18T21:25:53.209Z,9.45
2022-11-18T21:28:25.088Z,10.52
2022-11-18T21:30:55.739Z,8.63
2022-11-18T21:33:27.308Z,8.35
2022-11-18T21:36:01.289Z,10.88
2022-11-18T21:38:31.575Z,12.13
2022-11-18T21:41:08.567Z,10.35
2022-11-18T21:44:04.426Z,10.20
2022-11-18T21:46:33.817Z,7.97
2022-11-18T21:49:03.013Z,8.82
2022-11-18T21:51:35.281Z,7.95
2022-11-18T21:54:04.855Z,7.95
2022-11-18T21:56:36.007Z,8.07
2022-11-18T21:59:09.590Z,7.28
2022-11-18T22:01:37.254Z,7.22
2022-11-18T22:04:09.007Z,6.32
2022-11-18T22:06:36.205Z,11.05
2022-11-18T22:09:04.565Z,7.80
2022-11-18T22:11:34.518Z,6.70
2022-11-18T22:14:02.443Z,7.55
2022-11-18T22:16:34.439Z,5.93
2022-11-18T22:19:08.055Z,6.43
2022-11-18T22:21:37.485Z,6.35
2022-11-18T22:24:07.902Z,7.07
2022-11-18T22:26:38.255Z,9.20
2022-11-18T22:29:08.689Z,7.30
2022-11-18T22:31:39.613Z,9.45
2022-11-18T22:34:08.503Z,8.00
2022-11-18T22:36:36.569Z,7.03
2022-11-18T22:39:05.289Z,9.52
2022-11-18T22:41:53.657Z,9.13
2022-11-18T22:44:24.974Z,11.77
2022-11-18T22:46:56.253Z,8.45
2022-11-18T22:49:24.833Z,10.02
2022-11-18T22:51:53.808Z,8.73
2022-11-18T22:54:42.185Z,8.45
2022-11-18T22:57:11.227Z,9.40
2022-11-18T22:59:41.736Z,7.43
2022-11-18T23:02:11.588Z,10.55
2022-11-18T23:04:41.821Z,9.55
2022-11-18T23:07:12.806Z,6.32
2022-11-18T23:09:44.987Z,6.40
2022-11-18T23:12:32.651Z,7.47
2022-11-18T23:15:02.111Z,8.63
2022-11-18T23:17:36.372Z,8.00
2022-11-18T23:20:06.357Z,7.63
2022-11-18T23:22:36.858Z,9.40
2022-11-18T23:25:09.302Z,9.02
2022-11-18T23:27:42.494Z,10.77
2022-11-18T23:30:13.732Z,7.95
2022-11-18T23:32:44.860Z,10.60
2022-11-18T23:35:16.799Z,9.23
2022-11-18T23:37:47.817Z,8.20
2022-11-18T23:40:17.702Z,9.30
2022-11-18T23:42:47.813Z,8.88
2022-11-18T23:45:23.933Z,9.95
2022-11-18T23:47:54.040Z,11.10
2022-11-18T23:50:23.826Z,7.40
2022-11-18T23:52:53.293Z,9.50
2022-11-18T23:55:22.289Z,8.32
2022-11-18T23:57:53.309Z,9.05
